Flight Track Log - Related Links

Times and Time Zones

All times are in EDT time to prevent confusion due to time zone crossing. See the DAL3672 flight status page for this flight to view local times or setup timezone preferences in your user account.

Time Position Orientation Groundspeed Altitude Reporting Facility
EDT Latitude Longitude Course Direction KTS MPH feet Rate Location/Type
Thu 01:04:18 PM 42.9500 -71.4333 270° West 148 170 900  Level KA90
Thu 01:05:52 PM 43.0072 -71.5031 318° Northwest 203 234 4,800 2,532 Climbing Boston Center
Thu 01:06:52 PM 43.0472 -71.5736 308° West 224 258 7,400 2,950 Climbing Boston Center
Thu 01:07:00 PM 42.9500 -71.9041 270° West  Level FlightAware Approximate
Thu 01:07:52 PM 43.0647 -71.6672 284° West 248 285 10,700  Level Boston Center
Thu 01:08:00 PM 42.9500 -72.0229 270° West  Level FlightAware Approximate
Thu 01:08:52 PM 43.0694 -71.7722 274° West 264 304 11,800  Level Boston Center
Thu 01:09:00 PM 42.9501 -72.1419 270° West  Level FlightAware Approximate
Thu 01:09:52 PM 43.0744 -71.8972 273° West 316 364 14,000  Level Boston Center
Thu 01:10:52 PM 43.0789 -72.0136 273° West 327 376 16,200 1,900 Climbing Boston Center
Thu 01:11:52 PM 43.0836 -72.1389 273° West 327 376 17,800 1,450 Climbing Boston Center
Thu 01:12:52 PM 43.0881 -72.2497 273° West 327 376 19,100 1,500 Climbing Boston Center
Thu 01:13:52 PM 43.1006 -72.3661 278° West 327 376 20,800 1,150 Climbing Boston Center
Thu 01:14:52 PM 43.1006 -72.4942 270° West 333 383 21,400 800 Climbing Boston Center
Thu 01:15:52 PM 43.1089 -72.6219 275° West 338 389 22,400 1,150 Climbing Boston Center
Thu 01:16:52 PM 43.1022 -72.7558 266° West 343 395 23,700 1,150 Climbing Boston Center
Thu 01:17:52 PM 43.1081 -72.8867 274° West 348 400 24,700 950 Climbing Boston Center
Thu 01:18:52 PM 43.1158 -73.0344 274° West 353 406 25,600 850 Climbing Boston Center
Thu 01:19:52 PM 43.1192 -73.1683 272° West 358 412 26,400 800 Climbing Boston Center
Thu 01:20:52 PM 43.1244 -73.3019 273° West 358 412 27,200 750 Climbing Boston Center
Thu 01:21:52 PM 43.1233 -73.4328 269° West 358 412 27,900 750 Climbing Boston Center
Thu 01:22:52 PM 43.1242 -73.5694 271° West 353 406 28,700 800 Climbing Boston Center
Thu 01:23:52 PM 43.1292 -73.7033 273° West 353 406 29,500 650 Climbing Boston Center
Thu 01:24:52 PM 43.1317 -73.8342 272° West 353 406 30,000 250 Climbing Boston Center
Thu 01:25:52 PM 43.1342 -73.9736 271° West 359 413 30,000  Level Boston Center
Thu 01:26:52 PM 43.1383 -74.1131 272° West 365 420 30,000  Level Boston Center
Thu 01:27:52 PM 43.1403 -74.2583 271° West 370 426 30,000  Level Boston Center
Thu 01:28:52 PM 43.1442 -74.4008 272° West 370 426 30,000  Level Boston Center
Thu 01:29:52 PM 43.1458 -74.5458 271° West 376 433 30,000  Level Boston Center
Thu 01:30:52 PM 43.1492 -74.6911 272° West 381 438 30,000  Level Boston Center
Thu 01:31:52 PM 43.1525 -74.8364 272° West 386 444 30,000  Level Boston Center
Thu 01:32:52 PM 43.1536 -74.9789 271° West 386 444 30,000  Level Boston Center
Thu 01:33:52 PM 43.1544 -75.1242 271° West 386 444 30,000  Level Boston Center
Thu 01:34:52 PM 43.1572 -75.2694 272° West 386 444 30,000  Level Boston Center
Thu 01:35:52 PM 43.1597 -75.4147 271° West 386 444 30,000  Level Boston Center
Thu 01:36:52 PM 43.1603 -75.5572 270° West 386 444 30,000  Level Boston Center
Thu 01:37:52 PM 43.1603 -75.7022 270° West 386 444 30,000  Level Boston Center
Thu 01:38:52 PM 43.1628 -75.8306 272° West 386 444 30,000  Level Boston Center
Thu 01:39:52 PM 43.1628 -75.9728 270° West 381 438 30,000  Level Boston Center
Thu 01:41:38 PM 43.1597 -76.2253 269° West 393 452 30,000  Level Cleveland Center
Thu 01:42:38 PM 43.1464 -76.3714 263° West 388 447 30,000  Level Cleveland Center
Thu 01:43:38 PM 43.1347 -76.5089 263° West 383 441 30,000  Level Cleveland Center
Thu 01:44:38 PM 43.1250 -76.6517 265° West 383 441 30,000  Level Cleveland Center
Thu 01:45:38 PM 43.1108 -76.7919 262° West 383 441 30,000  Level Cleveland Center
Thu 01:46:38 PM 43.0989 -76.9350 264° West 383 441 30,000  Level Cleveland Center
Thu 01:47:38 PM 43.0825 -77.0839 261° West 393 452 30,000  Level Cleveland Center
Thu 01:48:38 PM 43.0700 -77.2267 263° West 393 452 30,000  Level Cleveland Center
Thu 01:49:38 PM 43.0575 -77.3722 263° West 393 452 30,000  Level Cleveland Center
Thu 01:50:38 PM 43.0428 -77.5208 262° West 393 452 30,000  Level Cleveland Center
Thu 01:51:39 PM 43.0300 -77.6692 263° West 393 452 30,000  Level Cleveland Center
Thu 01:52:38 PM 43.0111 -77.8319 261° West 393 452 30,000  Level Cleveland Center
Thu 01:53:38 PM 42.9978 -77.9772 263° West 393 452 30,000  Level Cleveland Center
Thu 01:54:38 PM 42.9844 -78.1283 263° West 393 452 30,000  Level Cleveland Center
Thu 01:55:38 PM 42.9686 -78.2764 262° West 393 452 30,000  Level Cleveland Center
Thu 01:56:38 PM 42.9528 -78.4244 262° West 393 452 30,000  Level Cleveland Center
Thu 01:57:38 PM 42.9389 -78.5725 263° West 393 452 30,000  Level Cleveland Center
Thu 01:58:38 PM 42.9206 -78.7233 261° West 393 452 30,000  Level Cleveland Center
Thu 01:59:38 PM 42.8997 -78.8714 259° West 393 452 30,000  Level Cleveland Center
Thu 02:00:38 PM 42.8789 -79.0164 259° West 393 452 30,000  Level Cleveland Center
Thu 02:01:38 PM 42.8581 -79.1642 259° West 393 452 30,000  Level Cleveland Center
Thu 02:02:38 PM 42.8325 -79.3150 257° West 393 452 30,000  Level Cleveland Center
Thu 02:03:38 PM 42.8133 -79.4653 260° West 399 459 30,000  Level Cleveland Center
Thu 02:04:38 PM 42.7897 -79.6128 258° West 399 459 30,000  Level Cleveland Center
Thu 02:05:38 PM 42.7678 -79.7603 259° West 399 459 30,000  Level Cleveland Center
Thu 02:06:38 PM 42.7500 -79.9131 261° West 404 465 30,000  Level Cleveland Center
Thu 02:07:38 PM 42.7403 -80.0603 265° West 411 473 30,000  Level Cleveland Center
Thu 02:08:38 PM 42.7369 -80.2186 268° West 411 473 30,000 -50 Level Cleveland Center
Thu 02:09:38 PM 42.7308 -80.3711 267° West 402 463 29,900 -600 Descending Cleveland Center
Thu 02:10:38 PM 42.7250 -80.5239 267° West 407 468 28,800 -950 Descending Cleveland Center
Thu 02:11:38 PM 42.7164 -80.6708 265° West 402 463 28,000 -450 Descending Cleveland Center
Thu 02:12:38 PM 42.7122 -80.8064 268° West 381 438 27,900 -600 Descending Cleveland Center
Thu 02:13:38 PM 42.7014 -80.9194 263° West 343 395 26,800 -1,050 Descending Cleveland Center
Thu 02:14:38 PM 42.6886 -81.0239 261° West 302 348 25,800 -1,000 Descending Cleveland Center
Thu 02:15:38 PM 42.6797 -81.1225 263° West 271 312 24,800 -900 Descending Cleveland Center
Thu 02:16:38 PM 42.6689 -81.2186 261° West 265 305 24,000 -400 Descending Cleveland Center
Thu 02:17:38 PM 42.6600 -81.3144 263° West 265 305 24,000  Level Cleveland Center
Thu 02:18:38 PM 42.6492 -81.3989 260° West 259 298 24,000 -100 Level Cleveland Center
Thu 02:19:38 PM 42.6358 -81.4947 259° West 259 298 23,800 -600 Descending Cleveland Center
Thu 02:20:38 PM 42.6244 -81.5989 262° West 272 313 22,800 -1,000 Descending Cleveland Center
Thu 02:21:38 PM 42.6236 -81.7006 269° West 284 327 21,800 -1,000 Descending Cleveland Center
Thu 02:22:38 PM 42.6769 -81.7806 312° West 261 300 20,800 -1,000 Descending Cleveland Center
Thu 02:23:38 PM 42.7303 -81.8608 312° West 267 307 19,800 -1,000 Descending Cleveland Center
Thu 02:24:38 PM 42.7711 -81.9408 305° West 273 314 18,800 -1,433 Descending Cleveland Center
Thu 02:26:38 PM 42.7314 -82.1236 254° West 242 278 15,500 -1,767 Descending Cleveland Center
Thu 02:27:38 PM 42.6886 -82.2017 233° Southwest 251 289 13,500 -2,176 Descending Cleveland Center
Thu 02:28:09 PM 42.6647 -82.2519 237° Southwest 251 289 12,200 -1,500 Descending Cleveland Center
Thu 02:28:38 PM 42.6497 -82.2825 236° Southwest 256 295 12,000 -194 Descending Cleveland Center
Thu 02:29:11 PM 42.6242 -82.3297 234° Southwest 245 282 12,000  Level Cleveland Center
Thu 02:29:38 PM 42.6092 -82.3547 231° Southwest 256 295 12,000  Level Cleveland Center
Thu 02:30:06 PM 42.5856 -82.4019 236° Southwest 259 298 12,000  Level Cleveland Center
Thu 02:30:39 PM 42.5661 -82.4353 232° Southwest 262 302 12,000  Level Cleveland Center
Thu 02:31:07 PM 42.5447 -82.4797 237° Southwest 251 289 12,000  Level Cleveland Center
Thu 02:31:38 PM 42.5253 -82.5103 229° Southwest 262 302 12,000  Level Cleveland Center
Thu 02:32:15 PM 42.4994 -82.5686 239° Southwest 247 284 12,000 -200 Level Cleveland Center
Thu 02:32:38 PM 42.4906 -82.5908 242° Southwest 257 296 11,800 -1,091 Descending Cleveland Center
Thu 02:33:10 PM 42.4750 -82.6439 248° West 237 273 11,000 -1,200 Descending Cleveland Center
Thu 02:33:38 PM 42.4619 -82.6714 237° Southwest 244 281 10,600 -1,180 Descending Cleveland Center
Thu 02:34:11 PM 42.4464 -82.7244 248° West 233 268 9,800 -1,100 Descending Cleveland Center
Thu 02:34:38 PM 42.4356 -82.7494 240° Southwest 238 274 9,500 -1,574 Descending Cleveland Center
Thu 02:35:12 PM 42.4222 -82.7939 248° West 191 220 8,200 -1,800 Descending Cleveland Center
Thu 02:35:38 PM 42.4114 -82.8161 237° Southwest 225 259 7,700 -1,161 Descending Cleveland Center
Thu 02:36:14 PM 42.3939 -82.8633 243° Southwest 199 229 7,000 -700 Descending Cleveland Center
Thu 02:36:38 PM 42.3872 -82.8828 245° Southwest 212 244 7,000  Level Cleveland Center
Thu 02:37:15 PM 42.3717 -82.9300 246° West 197 227 7,000  Level Cleveland Center
Thu 02:37:38 PM 42.3631 -82.9464 235° Southwest 201 231 7,000  Level Cleveland Center
Thu 02:38:16 PM 42.3517 -82.9911 251° West 168 193 7,000 -545 Level Cleveland Center
Thu 02:39:17 PM 42.4053 -83.0128 343° North 222 255 6,100 -492 Descending Cleveland Center
Thu 02:40:18 PM 42.4569 -83.0317 345° North 190 219 6,000 -49 Descending Cleveland Center
Thu 02:41:20 PM 42.4786 -83.0944 295° West 176 203 6,000  Level Cleveland Center
Thu 02:42:21 PM 42.4647 -83.1586 254° West 181 208 6,000  Level Cleveland Center
Thu 02:43:22 PM 42.4161 -83.1875 204° Southwest 187 215 6,000  Level Cleveland Center
Thu 02:44:24 PM 42.3714 -83.2250 212° Southwest 188 216 6,000  Level Cleveland Center
Thu 02:45:25 PM 42.3242 -83.1950 155° Southeast 234 269 6,000  Level Cleveland Center
Thu 02:46:26 PM 42.3425 -83.1283 70° East 220 253 6,000  Level Cleveland Center

Login

Don't have an account? Register now (free) for customized features, flight alerts, and more!